Terminal Aerodrome Forecast
Issued by NWS

Home | Current Version | Previous Version | Text Only | Print | Product List | Glossary Off
Versions: 1 2 3 4 5 6 7 8 9 10 11 12 13

000
FTUS45 KGGW 201100
TAFGDV
TAF
KGDV 201130Z 2012/2112 VRB05KT P6SM BKN200
     FM201500 29015KT P6SM BKN100
     FM201800 28020G30KT P6SM SCT100
     FM210300 27011KT P6SM SKC
      AMD LTD TO CLD VIS AND WIND=

USA.gov is the U.S. government's official web portal to all federal, state and local government web resources and services.